SLPA weather

Palmar Airport
Guanacos, Santa Cruz Department, Bolivia

Public forecast

Using degrees Celsius for public forecast. Weather courtesy of forecast.io.

Closest aviation weather report (METAR) to Palmar Airport

Report is more than 6 hours old.

Closest report is Camiri Airport, 69.6 nm (128.8 km) SSW. Retrieved 2020/01/27 23:00 UTC (11 hours ago):

SLCA 272300Z 18005KT 9999 BKN036 25/17 Q1016

Closest aviation forecast (TAF) to Palmar Airport

Closest forecast is El Trompillo Airport, 70.5 nm (130.6 km) N. Retrieved 2020/01/28 06:21 UTC (3 hours ago):

TAF SLET 280400Z 2806/2906 20005KT 9999 SCT017 TX34/2819Z TN22/2810Z PROB30 2807/2809 VRB02KT 5000 BR SCT010 BECMG 2815/2817 33015G25KT BKN023